Time;durP1;ratioP1;P1;durP2;ratioP2;P2;SDS_P1;SDS_P2;PMS_P1;PMS_P2;Temp;Humidity;BMP_temperature;BMP_pressure;BME280_temperature;BME280_humidity;BME280_pressure;Samples;Min_cycle;Max_cycle;Signal;HPM_P1;HPM_P2
2021/07/25 00:00:37;;;;;;;25.77;21.50;;;;;;;;;;4695449;30;20514;-79
2021/07/25 00:03:03;;;;;;;22.13;17.85;;;;;;;;;;4679988;30;20029;-79
2021/07/25 00:05:28;;;;;;;22.95;18.27;;;;;;;;;;4687927;30;20044;-79
2021/07/25 00:07:54;;;;;;;22.88;18.52;;;;;;;;;;4661727;30;20042;-79
2021/07/25 00:10:19;;;;;;;20.60;17.08;;;;;;;;;;4688636;30;20041;-79
2021/07/25 00:12:44;;;;;;;21.23;17.63;;;;;;;;;;4680293;30;20037;-79
2021/07/25 00:15:10;;;;;;;22.73;18.45;;;;;;;;;;4692215;30;20034;-79
2021/07/25 00:17:35;;;;;;;20.30;17.33;;;;;;;;;;4694371;30;20720;-79
2021/07/25 00:20:02;;;;;;;21.95;18.15;;;;;;;;;;4677490;30;20038;-79
2021/07/25 00:22:27;;;;;;;23.10;19.25;;;;;;;;;;4678283;30;20041;-79
2021/07/25 00:25:07;;;;;;;23.27;19.38;;;;;;;;;;4688667;30;20056;-79
2021/07/25 00:27:32;;;;;;;23.02;19.40;;;;;;;;;;4685316;30;20045;-79
2021/07/25 00:29:58;;;;;;;25.73;21.98;;;;;;;;;;4682238;30;20626;-79
2021/07/25 00:32:23;;;;;;;23.40;20.20;;;;;;;;;;4666890;30;20054;-79
2021/07/25 00:34:48;;;;;;;25.58;22.15;;;;;;;;;;4670520;30;20037;-79
2021/07/25 00:37:14;;;;;;;29.42;23.13;;;;;;;;;;4672388;30;20033;-79
2021/07/25 00:39:39;;;;;;;27.77;23.50;;;;;;;;;;4677240;30;20060;-79
2021/07/25 00:42:05;;;;;;;28.67;22.52;;;;;;;;;;4694275;30;20046;-79
2021/07/25 00:44:30;;;;;;;23.58;18.73;;;;;;;;;;4655717;30;20034;-79
2021/07/25 00:47:01;;;;;;;22.50;19.90;;;;;;;;;;4676528;30;20420;-79
2021/07/25 00:49:27;;;;;;;20.38;18.00;;;;;;;;;;4698219;30;20065;-79
2021/07/25 00:51:53;;;;;;;22.27;17.98;;;;;;;;;;4690999;30;20042;-79
2021/07/25 00:54:20;;;;;;;26.50;20.70;;;;;;;;;;4691624;30;20037;-79
2021/07/25 00:56:45;;;;;;;22.58;19.33;;;;;;;;;;4693250;30;20048;-79
2021/07/25 00:59:12;;;;;;;23.25;18.92;;;;;;;;;;4665829;30;20038;-79
2021/07/25 01:01:37;;;;;;;22.08;18.60;;;;;;;;;;4689243;30;20038;-79
2021/07/25 01:04:13;;;;;;;23.63;18.92;;;;;;;;;;4680230;30;20049;-79
2021/07/25 01:07:00;;;;;;;22.98;19.05;;;;;;;;;;4694162;30;20387;-79
2021/07/25 01:09:49;;;;;;;23.52;19.45;;;;;;;;;;4690747;30;20061;-79
2021/07/25 01:12:23;;;;;;;27.05;20.10;;;;;;;;;;4695269;30;20443;-79
2021/07/25 01:14:50;;;;;;;26.05;19.08;;;;;;;;;;4704826;30;20042;-79
2021/07/25 01:17:27;;;;;;;23.13;19.52;;;;;;;;;;4698200;30;20096;-79
2021/07/25 01:19:54;;;;;;;22.63;19.38;;;;;;;;;;4699915;30;20044;-79
2021/07/25 01:22:19;;;;;;;24.95;20.33;;;;;;;;;;4679799;30;20042;-79
2021/07/25 01:24:45;;;;;;;23.48;19.05;;;;;;;;;;4684104;30;20149;-79
2021/07/25 01:27:35;;;;;;;22.98;18.95;;;;;;;;;;4687290;30;20139;-79
2021/07/25 01:30:04;;;;;;;20.05;17.55;;;;;;;;;;4675267;30;20037;-79
2021/07/25 01:32:32;;;;;;;23.45;19.17;;;;;;;;;;4697610;30;20724;-79
2021/07/25 01:34:59;;;;;;;25.45;19.52;;;;;;;;;;4671222;30;20040;-79
2021/07/25 01:37:26;;;;;;;21.45;17.52;;;;;;;;;;4694322;30;20046;-79
2021/07/25 01:39:52;;;;;;;20.08;17.25;;;;;;;;;;4677815;30;20042;-79
2021/07/25 01:42:31;;;;;;;21.08;16.60;;;;;;;;;;4678976;30;20041;-79
2021/07/25 01:44:59;;;;;;;24.15;18.38;;;;;;;;;;4691716;30;20034;-79
2021/07/25 01:47:25;;;;;;;19.70;16.63;;;;;;;;;;4695166;30;21768;-79
2021/07/25 01:49:50;;;;;;;19.73;16.30;;;;;;;;;;4677477;30;20038;-79
2021/07/25 01:52:16;;;;;;;19.50;16.77;;;;;;;;;;4667757;30;20128;-79
2021/07/25 01:54:43;;;;;;;21.75;16.88;;;;;;;;;;4667201;30;20038;-79
2021/07/25 01:57:08;;;;;;;19.25;15.10;;;;;;;;;;4668045;30;20105;-79
2021/07/25 01:59:34;;;;;;;18.40;15.15;;;;;;;;;;4679205;30;20447;-79
2021/07/25 02:01:59;;;;;;;17.10;14.63;;;;;;;;;;4673533;30;20046;-79
2021/07/25 02:04:24;;;;;;;16.63;13.98;;;;;;;;;;4675281;30;20050;-79
2021/07/25 02:06:50;;;;;;;15.63;13.25;;;;;;;;;;4698583;30;20073;-79
2021/07/25 02:09:15;;;;;;;16.20;13.07;;;;;;;;;;4670538;30;20089;-79
2021/07/25 02:11:41;;;;;;;15.63;12.98;;;;;;;;;;4685222;30;20076;-79
2021/07/25 02:14:08;;;;;;;14.25;12.38;;;;;;;;;;4677510;30;20083;-79
2021/07/25 02:16:34;;;;;;;15.85;12.40;;;;;;;;;;4681201;30;20430;-79
2021/07/25 02:19:00;;;;;;;14.50;12.95;;;;;;;;;;4694922;30;20066;-79
2021/07/25 02:21:25;;;;;;;16.00;12.82;;;;;;;;;;4682535;30;20041;-79
2021/07/25 02:23:50;;;;;;;16.15;13.77;;;;;;;;;;4683384;30;20072;-79
2021/07/25 02:26:16;;;;;;;16.13;13.38;;;;;;;;;;4677673;30;20046;-79
2021/07/25 02:28:41;;;;;;;14.27;11.88;;;;;;;;;;4681636;30;20041;-79
2021/07/25 02:31:07;;;;;;;15.40;12.68;;;;;;;;;;4685890;30;20472;-79
2021/07/25 02:33:32;;;;;;;18.30;13.40;;;;;;;;;;4682001;30;20132;-79
2021/07/25 02:35:57;;;;;;;16.63;12.13;;;;;;;;;;4691198;30;20033;-79
2021/07/25 02:38:23;;;;;;;14.00;12.10;;;;;;;;;;4673026;30;20440;-79
2021/07/25 02:40:48;;;;;;;15.80;12.50;;;;;;;;;;4668961;30;20096;-79
2021/07/25 02:43:14;;;;;;;16.15;13.07;;;;;;;;;;4691303;30;20365;-79
2021/07/25 02:45:39;;;;;;;14.95;12.15;;;;;;;;;;4665978;30;20068;-79
2021/07/25 02:48:05;;;;;;;13.68;11.90;;;;;;;;;;4668023;30;20042;-79
2021/07/25 02:50:31;;;;;;;13.45;11.52;;;;;;;;;;4679004;30;20380;-79
2021/07/25 02:52:56;;;;;;;14.23;12.02;;;;;;;;;;4669569;30;20129;-79
2021/07/25 02:55:21;;;;;;;14.77;12.57;;;;;;;;;;4672071;30;20041;-79
2021/07/25 02:57:47;;;;;;;13.68;11.35;;;;;;;;;;4665900;30;20058;-79
2021/07/25 03:00:13;;;;;;;14.98;12.45;;;;;;;;;;4672149;30;20049;-78
2021/07/25 03:02:38;;;;;;;14.98;11.75;;;;;;;;;;4659920;30;20046;-79
2021/07/25 03:05:04;;;;;;;15.82;12.32;;;;;;;;;;4682902;30;20041;-79
2021/07/25 03:07:30;;;;;;;15.38;12.15;;;;;;;;;;4688757;30;20088;-79
2021/07/25 03:09:55;;;;;;;15.95;12.55;;;;;;;;;;4690932;30;20096;-79
2021/07/25 03:12:21;;;;;;;14.80;12.18;;;;;;;;;;4663131;30;20514;-79
2021/07/25 03:14:46;;;;;;;16.65;12.38;;;;;;;;;;4667429;30;20042;-79
2021/07/25 03:17:12;;;;;;;15.02;11.85;;;;;;;;;;4669698;30;20062;-79
2021/07/25 03:19:37;;;;;;;16.02;11.95;;;;;;;;;;4679218;30;20095;-79
2021/07/25 03:22:04;;;;;;;14.50;11.48;;;;;;;;;;4677276;30;20108;-79
2021/07/25 03:24:31;;;;;;;15.18;11.68;;;;;;;;;;4675004;30;20058;-79
2021/07/25 03:26:56;;;;;;;14.30;11.75;;;;;;;;;;4683562;30;20104;-79
2021/07/25 03:29:22;;;;;;;14.25;11.80;;;;;;;;;;4682569;30;20045;-79
2021/07/25 03:31:47;;;;;;;13.95;10.90;;;;;;;;;;4680821;30;20041;-79
2021/07/25 03:34:12;;;;;;;15.38;12.50;;;;;;;;;;4697664;30;20029;-79
2021/07/25 03:36:39;;;;;;;14.82;11.35;;;;;;;;;;4674492;30;20049;-79
2021/07/25 03:39:11;;;;;;;14.73;10.55;;;;;;;;;;4687062;30;20384;-79
2021/07/25 03:41:37;;;;;;;14.00;10.45;;;;;;;;;;4679020;30;20033;-79
2021/07/25 03:44:02;;;;;;;12.93;10.32;;;;;;;;;;4663516;30;20449;-79
2021/07/25 03:46:28;;;;;;;12.48;9.73;;;;;;;;;;4690385;30;20136;-79
2021/07/25 03:48:53;;;;;;;12.13;10.07;;;;;;;;;;4689965;30;20046;-79
2021/07/25 03:51:19;;;;;;;11.77;9.60;;;;;;;;;;4669145;30;20128;-79
2021/07/25 03:53:44;;;;;;;13.02;10.57;;;;;;;;;;4677608;30;20038;-79
2021/07/25 03:56:09;;;;;;;12.27;9.82;;;;;;;;;;4663423;30;20132;-79
2021/07/25 03:58:35;;;;;;;11.98;10.18;;;;;;;;;;4680969;30;20038;-79
2021/07/25 04:01:01;;;;;;;11.30;9.23;;;;;;;;;;4668326;30;20048;-79
2021/07/25 04:03:26;;;;;;;11.27;9.07;;;;;;;;;;4693537;30;20479;-79
2021/07/25 04:05:51;;;;;;;11.75;9.27;;;;;;;;;;4671473;30;20227;-79
2021/07/25 04:08:17;;;;;;;11.15;8.82;;;;;;;;;;4671865;30;20038;-79
2021/07/25 04:10:43;;;;;;;10.52;8.57;;;;;;;;;;4680086;30;20103;-79
2021/07/25 04:13:10;;;;;;;10.13;8.15;;;;;;;;;;4677282;30;20042;-79
2021/07/25 04:15:40;;;;;;;10.35;8.23;;;;;;;;;;4697026;30;20034;-79
2021/07/25 04:18:06;;;;;;;11.70;8.63;;;;;;;;;;4669807;30;20388;-79
2021/07/25 04:20:32;;;;;;;11.38;8.82;;;;;;;;;;4674145;30;20033;-79
2021/07/25 04:22:58;;;;;;;10.05;8.18;;;;;;;;;;4673387;30;20038;-79
2021/07/25 04:25:23;;;;;;;11.57;7.97;;;;;;;;;;4673868;30;20101;-79
2021/07/25 04:27:49;;;;;;;8.38;6.60;;;;;;;;;;4679004;30;20507;-79
2021/07/25 04:30:15;;;;;;;9.77;7.65;;;;;;;;;;4679516;30;20041;-79
2021/07/25 04:32:40;;;;;;;10.57;8.50;;;;;;;;;;4673291;30;20050;-79
2021/07/25 04:35:08;;;;;;;8.63;7.10;;;;;;;;;;4676723;30;20033;-79
2021/07/25 04:37:36;;;;;;;10.65;7.45;;;;;;;;;;4694609;30;20045;-79
2021/07/25 04:40:02;;;;;;;10.90;7.68;;;;;;;;;;4677243;30;20540;-79
2021/07/25 04:42:30;;;;;;;9.40;7.18;;;;;;;;;;4677666;30;20108;-79
2021/07/25 04:45:02;;;;;;;9.75;7.32;;;;;;;;;;4682322;30;20041;-79
2021/07/25 04:48:06;;;;;;;8.65;6.55;;;;;;;;;;4692518;30;20903;-79
2021/07/25 04:50:36;;;;;;;9.98;7.05;;;;;;;;;;4657545;30;20057;-79
2021/07/25 04:53:02;;;;;;;8.82;7.05;;;;;;;;;;4700074;30;20033;-79
2021/07/25 04:55:32;;;;;;;8.10;6.38;;;;;;;;;;4670673;30;20044;-79
2021/07/25 04:58:06;;;;;;;9.88;7.15;;;;;;;;;;4692411;30;20419;-79
2021/07/25 05:00:33;;;;;;;8.75;6.82;;;;;;;;;;4701148;30;20124;-79
2021/07/25 05:03:05;;;;;;;9.85;7.38;;;;;;;;;;4698973;30;20042;-79
2021/07/25 05:05:31;;;;;;;11.15;7.45;;;;;;;;;;4697858;30;20044;-79
2021/07/25 05:08:02;;;;;;;9.23;7.10;;;;;;;;;;4676059;30;20049;-79
2021/07/25 05:10:29;;;;;;;9.32;6.88;;;;;;;;;;4677820;30;20096;-79
2021/07/25 05:13:08;;;;;;;7.95;6.40;;;;;;;;;;4666394;30;20515;-79
2021/07/25 05:15:39;;;;;;;9.73;6.72;;;;;;;;;;4691130;30;20038;-79
2021/07/25 05:18:09;;;;;;;8.65;6.28;;;;;;;;;;4685483;30;20430;-79
2021/07/25 05:20:43;;;;;;;10.02;6.78;;;;;;;;;;4683061;30;20037;-78
2021/07/25 05:23:24;;;;;;;8.82;7.00;;;;;;;;;;4698192;30;20037;-79
2021/07/25 05:25:53;;;;;;;8.93;6.88;;;;;;;;;;4678438;30;20480;-79
2021/07/25 05:28:20;;;;;;;8.45;6.60;;;;;;;;;;4674999;30;20069;-79
2021/07/25 05:30:55;;;;;;;8.85;6.50;;;;;;;;;;4675757;30;20044;-79
2021/07/25 05:33:22;;;;;;;9.88;6.38;;;;;;;;;;4697585;30;20037;-79
2021/07/25 05:35:47;;;;;;;8.38;6.53;;;;;;;;;;4680656;30;20034;-79
2021/07/25 05:38:14;;;;;;;8.90;7.10;;;;;;;;;;4679335;30;20451;-79
2021/07/25 05:40:40;;;;;;;8.10;6.40;;;;;;;;;;4677461;30;20058;-79
2021/07/25 05:43:06;;;;;;;7.97;6.65;;;;;;;;;;4696014;30;20041;-79
2021/07/25 05:45:31;;;;;;;9.70;6.82;;;;;;;;;;4691584;30;20117;-79
2021/07/25 05:47:56;;;;;;;9.40;6.97;;;;;;;;;;4684239;30;20052;-79
2021/07/25 05:50:22;;;;;;;9.32;7.25;;;;;;;;;;4670546;30;20045;-79
2021/07/25 05:52:53;;;;;;;8.15;6.30;;;;;;;;;;4669942;30;20056;-79
2021/07/25 05:55:31;;;;;;;9.07;6.55;;;;;;;;;;4694005;30;20037;-79
2021/07/25 05:57:58;;;;;;;9.98;7.00;;;;;;;;;;4693557;30;20416;-79
2021/07/25 06:00:23;;;;;;;9.40;6.70;;;;;;;;;;4696458;30;20311;-79
2021/07/25 06:02:53;;;;;;;9.27;6.97;;;;;;;;;;4676012;30;20045;-79
2021/07/25 06:05:19;;;;;;;8.75;6.32;;;;;;;;;;4691480;30;20337;-79
2021/07/25 06:07:45;;;;;;;9.63;8.00;;;;;;;;;;4693507;30;20033;-79
2021/07/25 06:10:10;;;;;;;10.00;7.88;;;;;;;;;;4697294;30;20459;-79
2021/07/25 06:12:37;;;;;;;12.48;8.45;;;;;;;;;;4659396;30;20431;-79
2021/07/25 06:15:03;;;;;;;11.65;8.70;;;;;;;;;;4697120;30;20045;-79
2021/07/25 06:17:28;;;;;;;11.02;7.60;;;;;;;;;;4702245;30;20045;-79
2021/07/25 06:19:54;;;;;;;15.82;8.48;;;;;;;;;;4683360;30;20044;-79
2021/07/25 06:22:19;;;;;;;10.50;7.03;;;;;;;;;;4696013;30;20038;-79
2021/07/25 06:24:44;;;;;;;11.10;7.55;;;;;;;;;;4676046;30;20397;-79
2021/07/25 06:27:10;;;;;;;9.95;7.78;;;;;;;;;;4675818;30;20464;-79
2021/07/25 06:29:35;;;;;;;12.73;8.30;;;;;;;;;;4667655;30;20049;-79
2021/07/25 06:32:01;;;;;;;9.93;8.32;;;;;;;;;;4664445;30;20124;-79
2021/07/25 06:34:26;;;;;;;13.35;8.70;;;;;;;;;;4676056;30;20510;-79
2021/07/25 06:36:51;;;;;;;12.05;7.90;;;;;;;;;;4665912;30;20511;-79
2021/07/25 06:39:17;;;;;;;11.13;8.38;;;;;;;;;;4669325;30;20128;-79
2021/07/25 06:41:42;;;;;;;11.30;7.88;;;;;;;;;;4683510;30;20072;-79
2021/07/25 06:44:08;;;;;;;10.20;8.07;;;;;;;;;;4670842;30;20059;-79
2021/07/25 06:46:34;;;;;;;13.45;8.65;;;;;;;;;;4681992;30;20041;-79
2021/07/25 06:49:00;;;;;;;12.80;8.65;;;;;;;;;;4676948;30;20121;-79
2021/07/25 06:51:25;;;;;;;10.88;7.97;;;;;;;;;;4679638;30;20110;-79
2021/07/25 06:53:51;;;;;;;10.77;8.90;;;;;;;;;;4690913;30;20052;-79
2021/07/25 06:56:16;;;;;;;13.13;8.63;;;;;;;;;;4670707;30;20042;-79
2021/07/25 06:58:42;;;;;;;11.20;9.38;;;;;;;;;;4671018;30;20041;-79
2021/07/25 07:01:09;;;;;;;12.93;9.82;;;;;;;;;;4684181;30;20044;-79
2021/07/25 07:03:36;;;;;;;12.07;9.15;;;;;;;;;;4676271;30;20044;-79
2021/07/25 07:06:06;;;;;;;11.90;9.23;;;;;;;;;;4684059;30;20041;-79
2021/07/25 07:08:32;;;;;;;13.73;8.98;;;;;;;;;;4681153;30;20111;-79
2021/07/25 07:10:57;;;;;;;11.52;9.27;;;;;;;;;;4679579;30;20092;-78
2021/07/25 07:13:22;;;;;;;14.68;9.45;;;;;;;;;;4673854;30;20030;-78
2021/07/25 07:15:48;;;;;;;13.07;9.25;;;;;;;;;;4675923;30;20038;-78
2021/07/25 07:18:14;;;;;;;13.20;9.48;;;;;;;;;;4686421;30;20488;-78
2021/07/25 07:20:40;;;;;;;13.85;10.43;;;;;;;;;;4681175;30;20042;-78
2021/07/25 07:23:10;;;;;;;13.43;10.30;;;;;;;;;;4692450;30;20088;-78
2021/07/25 07:25:43;;;;;;;14.07;9.90;;;;;;;;;;4694692;30;20045;-78
2021/07/25 07:28:09;;;;;;;15.68;9.65;;;;;;;;;;4675215;30;20045;-78
2021/07/25 07:30:36;;;;;;;12.05;9.52;;;;;;;;;;4692254;30;20088;-79
2021/07/25 07:33:21;;;;;;;12.15;9.48;;;;;;;;;;4678892;30;20487;-78
2021/07/25 07:35:47;;;;;;;12.55;8.95;;;;;;;;;;4672183;30;20471;-79
2021/07/25 07:38:14;;;;;;;12.50;8.90;;;;;;;;;;4695564;30;20479;-78
2021/07/25 07:40:42;;;;;;;10.93;8.52;;;;;;;;;;4681777;30;20106;-78
2021/07/25 07:43:09;;;;;;;12.65;8.10;;;;;;;;;;4677521;30;20037;-78
2021/07/25 07:45:36;;;;;;;11.93;8.77;;;;;;;;;;4695871;30;20129;-78
2021/07/25 07:48:02;;;;;;;11.57;8.02;;;;;;;;;;4690739;30;20369;-78
2021/07/25 07:50:28;;;;;;;11.68;8.68;;;;;;;;;;4689642;30;20056;-78
2021/07/25 07:52:53;;;;;;;11.45;8.43;;;;;;;;;;4690886;30;20064;-78
2021/07/25 07:55:18;;;;;;;10.25;8.05;;;;;;;;;;4689419;30;20099;-79
2021/07/25 07:57:45;;;;;;;10.73;7.95;;;;;;;;;;4669301;30;20204;-78
2021/07/25 08:00:11;;;;;;;12.05;7.80;;;;;;;;;;4674832;30;20060;-78
2021/07/25 08:02:37;;;;;;;9.77;7.93;;;;;;;;;;4669049;30;20495;-78
2021/07/25 08:05:03;;;;;;;11.68;8.25;;;;;;;;;;4689334;30;20117;-79
2021/07/25 08:07:29;;;;;;;11.50;8.20;;;;;;;;;;4693162;30;20149;-79
2021/07/25 08:09:54;;;;;;;11.23;7.82;;;;;;;;;;4670523;30;20188;-78
2021/07/25 08:12:20;;;;;;;11.15;8.40;;;;;;;;;;4674281;30;20498;-78
2021/07/25 08:14:45;;;;;;;10.93;7.95;;;;;;;;;;4675317;30;20411;-78
2021/07/25 08:17:11;;;;;;;10.57;7.35;;;;;;;;;;4692619;30;20029;-78
2021/07/25 08:19:36;;;;;;;11.35;8.20;;;;;;;;;;4674061;30;20041;-78
2021/07/25 08:22:02;;;;;;;11.00;7.95;;;;;;;;;;4673862;30;20057;-79
2021/07/25 08:24:28;;;;;;;12.57;8.68;;;;;;;;;;4660549;30;20510;-78
2021/07/25 08:26:53;;;;;;;10.20;7.60;;;;;;;;;;4668796;30;20053;-78
2021/07/25 08:29:19;;;;;;;11.30;8.20;;;;;;;;;;4691523;30;20160;-78
2021/07/25 08:31:44;;;;;;;11.90;9.48;;;;;;;;;;4666424;30;20491;-78
2021/07/25 08:34:10;;;;;;;12.50;9.48;;;;;;;;;;4689581;30;20046;-79
2021/07/25 08:36:35;;;;;;;13.15;9.15;;;;;;;;;;4694193;30;20446;-79
2021/07/25 08:39:01;;;;;;;12.27;9.18;;;;;;;;;;4675515;30;20861;-78
2021/07/25 08:41:47;;;;;;;12.00;9.73;;;;;;;;;;4674243;30;20045;-79
2021/07/25 08:44:41;;;;;;;11.52;8.82;;;;;;;;;;4685716;30;20609;-79
2021/07/25 08:47:22;;;;;;;13.00;9.27;;;;;;;;;;4689853;30;20093;-78
2021/07/25 08:50:07;;;;;;;12.40;8.63;;;;;;;;;;4689490;30;20041;-78
2021/07/25 08:52:36;;;;;;;10.00;7.72;;;;;;;;;;4670188;30;20068;-79
2021/07/25 08:55:16;;;;;;;9.95;7.47;;;;;;;;;;4677973;30;20136;-79
2021/07/25 08:57:44;;;;;;;9.18;6.43;;;;;;;;;;4684035;30;20034;-79
2021/07/25 09:00:12;;;;;;;8.20;5.90;;;;;;;;;;4675501;30;20104;-79
2021/07/25 09:02:38;;;;;;;9.02;6.10;;;;;;;;;;4670191;30;20104;-78
2021/07/25 09:05:04;;;;;;;9.93;6.03;;;;;;;;;;4679962;30;20041;-79
2021/07/25 09:07:32;;;;;;;8.32;5.78;;;;;;;;;;4673188;30;20073;-79
2021/07/25 09:10:13;;;;;;;10.18;6.22;;;;;;;;;;4692155;30;20073;-78
2021/07/25 09:12:40;;;;;;;9.57;5.75;;;;;;;;;;4672268;30;20068;-79
2021/07/25 09:15:10;;;;;;;7.20;5.40;;;;;;;;;;4665880;30;20048;-78
2021/07/25 09:17:36;;;;;;;8.30;5.80;;;;;;;;;;4677607;30;20068;-78
2021/07/25 09:20:08;;;;;;;11.80;5.45;;;;;;;;;;4657080;30;20046;-79
2021/07/25 09:22:33;;;;;;;8.07;4.75;;;;;;;;;;4688899;30;20040;-79
2021/07/25 09:24:59;;;;;;;7.82;4.47;;;;;;;;;;4691730;30;20061;-78
2021/07/25 09:27:24;;;;;;;6.07;4.07;;;;;;;;;;4680270;30;20041;-79
2021/07/25 09:29:50;;;;;;;7.38;4.40;;;;;;;;;;4665214;30;20065;-79
2021/07/25 09:32:17;;;;;;;7.95;4.35;;;;;;;;;;4675244;30;20772;-79
2021/07/25 09:34:45;;;;;;;7.25;3.85;;;;;;;;;;4671788;30;20844;-79
2021/07/25 09:37:19;;;;;;;7.95;4.40;;;;;;;;;;4688695;30;20041;-79
2021/07/25 09:39:49;;;;;;;8.55;4.45;;;;;;;;;;4689101;30;20832;-79
2021/07/25 09:42:15;;;;;;;7.93;4.10;;;;;;;;;;4695687;30;20037;-78
2021/07/25 09:44:50;;;;;;;9.85;4.80;;;;;;;;;;4672070;30;20783;-79
2021/07/25 09:47:27;;;;;;;6.82;4.40;;;;;;;;;;4673117;30;20046;-79
2021/07/25 09:49:53;;;;;;;8.30;3.78;;;;;;;;;;4686890;30;20034;-79
2021/07/25 09:52:36;;;;;;;7.60;3.60;;;;;;;;;;4672727;30;20037;-78
2021/07/25 09:55:05;;;;;;;5.88;3.88;;;;;;;;;;4684137;30;20070;-79
2021/07/25 09:57:31;;;;;;;6.20;3.28;;;;;;;;;;4687891;30;20472;-78
2021/07/25 10:00:07;;;;;;;10.05;3.60;;;;;;;;;;4683014;30;20037;-78
2021/07/25 10:02:43;;;;;;;7.72;3.72;;;;;;;;;;4680140;30;20041;-78
2021/07/25 10:05:17;;;;;;;6.50;3.85;;;;;;;;;;4678734;30;20064;-78
2021/07/25 10:07:45;;;;;;;5.30;3.47;;;;;;;;;;4692802;30;20161;-78
2021/07/25 10:10:13;;;;;;;6.57;3.20;;;;;;;;;;4688413;30;20044;-78
2021/07/25 10:12:40;;;;;;;5.22;2.92;;;;;;;;;;4687587;30;20591;-78
2021/07/25 10:15:13;;;;;;;5.47;3.00;;;;;;;;;;4661198;30;20049;-78
2021/07/25 10:17:41;;;;;;;5.60;2.60;;;;;;;;;;4669156;30;20504;-78
2021/07/25 10:20:09;;;;;;;6.00;2.90;;;;;;;;;;4687935;30;20125;-78
2021/07/25 10:22:36;;;;;;;7.40;3.00;;;;;;;;;;4694887;30;20037;-78
2021/07/25 10:25:07;;;;;;;4.93;2.70;;;;;;;;;;4668016;30;20499;-78
2021/07/25 10:27:35;;;;;;;3.72;2.53;;;;;;;;;;4672997;30;20046;-78
2021/07/25 10:30:06;;;;;;;7.00;2.40;;;;;;;;;;4675807;30;20053;-78
2021/07/25 10:32:34;;;;;;;4.93;2.50;;;;;;;;;;4696590;30;20683;-78
2021/07/25 10:35:05;;;;;;;4.45;2.80;;;;;;;;;;4672544;30;20450;-78
2021/07/25 10:37:37;;;;;;;5.35;2.60;;;;;;;;;;4689256;30;20034;-78
2021/07/25 10:40:04;;;;;;;4.88;2.55;;;;;;;;;;4693536;30;20037;-78
2021/07/25 10:42:32;;;;;;;5.53;2.65;;;;;;;;;;4691592;30;20391;-78
2021/07/25 10:44:58;;;;;;;4.68;2.60;;;;;;;;;;4674096;30;20397;-78
2021/07/25 10:47:28;;;;;;;5.40;2.50;;;;;;;;;;4679265;30;20030;-78
2021/07/25 10:50:01;;;;;;;4.03;2.40;;;;;;;;;;4671909;30;20104;-78
2021/07/25 10:52:47;;;;;;;3.90;2.40;;;;;;;;;;4677990;30;20038;-79
2021/07/25 10:55:32;;;;;;;5.63;2.53;;;;;;;;;;4674343;30;20053;-78
2021/07/25 10:58:11;;;;;;;4.07;2.47;;;;;;;;;;4691927;30;20838;-79
2021/07/25 11:00:56;;;;;;;4.78;2.40;;;;;;;;;;4687007;30;20080;-79
2021/07/25 11:03:25;;;;;;;5.32;2.38;;;;;;;;;;4670110;30;20407;-79
2021/07/25 11:06:05;;;;;;;5.15;2.42;;;;;;;;;;4688761;30;20115;-79
2021/07/25 11:08:34;;;;;;;4.80;2.70;;;;;;;;;;4675395;30;20454;-78
2021/07/25 11:11:00;;;;;;;4.22;2.40;;;;;;;;;;4690428;30;20463;-78
2021/07/25 11:13:39;;;;;;;5.40;2.85;;;;;;;;;;4691581;30;20548;-78
2021/07/25 11:16:29;;;;;;;5.03;2.70;;;;;;;;;;4663291;30;20060;-78
2021/07/25 11:18:56;;;;;;;4.43;2.30;;;;;;;;;;4691891;30;20116;-79
2021/07/25 11:21:36;;;;;;;5.00;2.10;;;;;;;;;;4671682;30;20046;-78
2021/07/25 11:24:26;;;;;;;4.75;2.60;;;;;;;;;;4691913;30;20164;-79
2021/07/25 11:27:05;;;;;;;6.90;2.97;;;;;;;;;;4667903;30;20162;-78
2021/07/25 11:29:30;;;;;;;5.93;2.90;;;;;;;;;;4671122;30;20033;-78
2021/07/25 11:31:56;;;;;;;5.85;2.78;;;;;;;;;;4677054;30;20515;-79
2021/07/25 11:34:33;;;;;;;4.10;2.40;;;;;;;;;;4675209;30;20490;-79
2021/07/25 11:37:04;;;;;;;4.05;2.47;;;;;;;;;;4671669;30;20546;-79
2021/07/25 11:39:32;;;;;;;4.32;2.45;;;;;;;;;;4668133;30;20106;-79
2021/07/25 11:42:03;;;;;;;4.72;2.45;;;;;;;;;;4674701;30;20042;-79
2021/07/25 11:44:30;;;;;;;4.78;2.60;;;;;;;;;;4689158;30;20506;-79
2021/07/25 11:46:57;;;;;;;4.93;2.70;;;;;;;;;;4665067;30;20045;-79
2021/07/25 11:49:28;;;;;;;2.97;1.92;;;;;;;;;;4689006;30;20049;-80
2021/07/25 11:52:01;;;;;;;5.38;2.17;;;;;;;;;;4690866;30;20041;-80
2021/07/25 11:54:32;;;;;;;4.00;2.25;;;;;;;;;;4671243;30;20033;-79
2021/07/25 11:57:13;;;;;;;3.65;2.15;;;;;;;;;;4680314;30;20026;-79
2021/07/25 11:59:52;;;;;;;3.10;1.90;;;;;;;;;;4678199;30;20116;-79
2021/07/25 12:02:25;;;;;;;5.45;2.00;;;;;;;;;;4692791;30;20435;-79
2021/07/25 12:04:52;;;;;;;5.45;2.40;;;;;;;;;;4692933;30;20052;-80
2021/07/25 12:07:22;;;;;;;6.18;2.35;;;;;;;;;;4688282;30;20038;-80
2021/07/25 12:09:48;;;;;;;4.80;2.05;;;;;;;;;;4677459;30;20044;-80
2021/07/25 12:12:16;;;;;;;5.93;2.28;;;;;;;;;;4688459;30;20496;-80
2021/07/25 12:14:52;;;;;;;3.55;1.95;;;;;;;;;;4687980;30;20047;-79
2021/07/25 12:17:44;;;;;;;4.82;1.80;;;;;;;;;;4691341;30;20034;-79
2021/07/25 12:20:20;;;;;;;4.63;1.92;;;;;;;;;;4695977;30;20479;-79
2021/07/25 12:23:04;;;;;;;3.95;2.00;;;;;;;;;;4691196;30;20080;-81
2021/07/25 12:25:38;;;;;;;2.70;1.88;;;;;;;;;;4691512;30;20080;-81
2021/07/25 12:28:14;;;;;;;4.95;2.15;;;;;;;;;;4690263;30;20093;-80
2021/07/25 12:30:52;;;;;;;2.42;1.60;;;;;;;;;;4676743;30;20046;-80
2021/07/25 12:33:30;;;;;;;6.88;2.17;;;;;;;;;;4669172;30;20038;-80
2021/07/25 12:36:08;;;;;;;3.90;1.98;;;;;;;;;;4688698;30;20559;-81
2021/07/25 12:38:34;;;;;;;3.97;2.00;;;;;;;;;;4672963;30;20037;-80
2021/07/25 12:41:01;;;;;;;4.00;1.88;;;;;;;;;;4688747;30;20068;-80
2021/07/25 12:43:27;;;;;;;3.63;1.80;;;;;;;;;;4679259;30;20127;-80
2021/07/25 12:46:00;;;;;;;6.18;2.30;;;;;;;;;;4676171;30;20095;-80
2021/07/25 12:48:35;;;;;;;19.10;2.67;;;;;;;;;;4694434;30;20564;-80
2021/07/25 12:53:41;;;;;;;4.07;1.80;;;;;;;;;;4670799;30;20046;-80
2021/07/25 12:56:12;;;;;;;5.82;2.10;;;;;;;;;;4694115;30;20033;-80
2021/07/25 12:58:59;;;;;;;5.03;2.25;;;;;;;;;;4675739;30;20718;-80
2021/07/25 13:03:56;;;;;;;6.18;2.10;;;;;;;;;;4688516;30;20035;-80
2021/07/25 13:06:26;;;;;;;5.25;2.30;;;;;;;;;;4687327;30;20073;-80
2021/07/25 13:08:53;;;;;;;5.10;1.95;;;;;;;;;;4699540;30;20042;-80
2021/07/25 13:11:20;;;;;;;4.32;2.00;;;;;;;;;;4692646;30;20400;-80
2021/07/25 13:13:47;;;;;;;8.13;2.38;;;;;;;;;;4666356;30;20038;-79
2021/07/25 13:16:16;;;;;;;4.15;2.10;;;;;;;;;;4697834;30;20046;-80
2021/07/25 13:18:43;;;;;;;5.57;2.17;;;;;;;;;;4675403;30;20095;-80
2021/07/25 13:21:09;;;;;;;4.40;2.00;;;;;;;;;;4667910;30;20083;-80
2021/07/25 13:23:36;;;;;;;4.07;2.00;;;;;;;;;;4684072;30;20072;-80
2021/07/25 13:26:02;;;;;;;6.63;1.92;;;;;;;;;;4694107;30;20060;-80
2021/07/25 13:28:28;;;;;;;4.38;2.05;;;;;;;;;;4688827;30;20045;-80
2021/07/25 13:30:53;;;;;;;4.93;1.95;;;;;;;;;;4665806;30;20613;-80
2021/07/25 13:33:20;;;;;;;3.72;2.00;;;;;;;;;;4662134;30;20111;-80
2021/07/25 13:35:47;;;;;;;3.85;1.75;;;;;;;;;;4688702;30;20038;-80
2021/07/25 13:38:13;;;;;;;7.00;1.90;;;;;;;;;;4679276;30;20052;-80
2021/07/25 13:40:38;;;;;;;5.13;1.60;;;;;;;;;;4664889;30;20045;-80
2021/07/25 13:43:10;;;;;;;3.38;1.33;;;;;;;;;;4678204;30;20041;-79
2021/07/25 13:45:36;;;;;;;3.22;1.45;;;;;;;;;;4688924;30;20045;-79
2021/07/25 13:48:01;;;;;;;3.58;1.45;;;;;;;;;;4675219;30;20050;-79
2021/07/25 13:50:29;;;;;;;2.63;1.40;;;;;;;;;;4671043;30;20041;-80
2021/07/25 13:52:55;;;;;;;4.05;1.48;;;;;;;;;;4666361;30;20503;-80
2021/07/25 13:55:21;;;;;;;3.83;1.40;;;;;;;;;;4674597;30;20041;-80
2021/07/25 13:57:46;;;;;;;5.82;1.50;;;;;;;;;;4676331;30;20059;-80
2021/07/25 14:00:12;;;;;;;3.25;1.38;;;;;;;;;;4698384;30;20042;-79
2021/07/25 14:02:37;;;;;;;2.70;1.40;;;;;;;;;;4693627;30;20045;-79
2021/07/25 14:05:03;;;;;;;2.92;1.40;;;;;;;;;;4677565;30;20042;-79
2021/07/25 14:07:29;;;;;;;4.03;1.48;;;;;;;;;;4654173;30;20187;-80
2021/07/25 14:09:54;;;;;;;5.15;1.60;;;;;;;;;;4671715;30;20072;-80
2021/07/25 14:12:20;;;;;;;4.43;1.80;;;;;;;;;;4671851;30;20038;-79
2021/07/25 14:14:45;;;;;;;3.45;1.70;;;;;;;;;;4672381;30;20045;-79
2021/07/25 14:17:11;;;;;;;4.47;1.90;;;;;;;;;;4683056;30;20057;-79
2021/07/25 14:19:37;;;;;;;7.70;2.13;;;;;;;;;;4679331;30;20071;-79
2021/07/25 14:22:05;;;;;;;7.65;1.75;;;;;;;;;;4660544;30;20046;-79
2021/07/25 14:24:30;;;;;;;4.15;1.67;;;;;;;;;;4666350;30;20062;-79
2021/07/25 14:26:56;;;;;;;3.78;1.58;;;;;;;;;;4662434;30;20052;-79
2021/07/25 14:29:21;;;;;;;5.55;1.70;;;;;;;;;;4660394;30;20050;-79
2021/07/25 14:31:46;;;;;;;3.10;1.70;;;;;;;;;;4665574;30;20627;-80
2021/07/25 14:34:12;;;;;;;4.03;1.73;;;;;;;;;;4692165;30;20515;-79
2021/07/25 14:36:37;;;;;;;3.10;1.60;;;;;;;;;;4679277;30;20045;-79
2021/07/25 14:39:03;;;;;;;5.50;1.67;;;;;;;;;;4664661;30;20092;-80
2021/07/25 14:41:28;;;;;;;6.55;1.70;;;;;;;;;;4685796;30;20060;-80
2021/07/25 14:43:54;;;;;;;2.88;1.60;;;;;;;;;;4663244;30;20038;-80
2021/07/25 14:46:19;;;;;;;4.25;1.75;;;;;;;;;;4674047;30;20045;-80